createdAt,value
2023-05-08T00:01:33.406Z,70.87
2023-05-08T00:04:02.068Z,71.07
2023-05-08T00:06:31.373Z,71.15
2023-05-08T00:08:59.700Z,71.24
2023-05-08T00:11:34.457Z,71.37
2023-05-08T00:14:04.888Z,71.43
2023-05-08T00:16:33.642Z,71.59
2023-05-08T00:19:02.363Z,71.71
2023-05-08T00:21:31.470Z,71.73
2023-05-08T00:23:59.989Z,71.79
2023-05-08T00:26:28.544Z,71.89
2023-05-08T00:28:57.020Z,72.00
2023-05-08T00:31:25.739Z,72.10
2023-05-08T00:33:54.595Z,72.18
2023-05-08T00:36:23.072Z,72.41
2023-05-08T00:38:51.544Z,72.44
2023-05-08T00:41:20.064Z,72.52
2023-05-08T00:43:48.829Z,72.62
2023-05-08T00:46:18.096Z,72.78
2023-05-08T00:48:47.340Z,72.86
2023-05-08T00:51:16.628Z,72.93
2023-05-08T00:53:45.581Z,73.02
2023-05-08T00:56:17.053Z,73.06
2023-05-08T00:58:45.920Z,73.28
2023-05-08T01:01:16.249Z,73.41
2023-05-08T01:03:45.480Z,73.35
2023-05-08T01:06:14.171Z,73.49
2023-05-08T01:08:45.616Z,73.65
2023-05-08T01:11:51.984Z,73.47
2023-05-08T01:14:21.809Z,73.63
2023-05-08T01:17:05.552Z,73.73
2023-05-08T01:19:54.265Z,73.80
2023-05-08T01:22:54.117Z,73.68
2023-05-08T01:26:00.582Z,73.74
2023-05-08T01:28:41.614Z,73.85
2023-05-08T01:31:28.844Z,74.01
2023-05-08T01:34:05.587Z,74.07
2023-05-08T01:36:41.706Z,74.18
2023-05-08T01:39:32.766Z,74.45
2023-05-08T01:42:08.479Z,74.38
2023-05-08T01:44:44.026Z,74.56
2023-05-08T01:47:18.467Z,74.74
2023-05-08T01:49:50.985Z,74.75
2023-05-08T01:52:28.728Z,74.85
2023-05-08T01:55:05.804Z,74.87
2023-05-08T01:57:38.679Z,75.05
2023-05-08T02:00:08.609Z,75.11
2023-05-08T02:02:41.138Z,75.12
2023-05-08T02:05:11.208Z,75.08
2023-05-08T02:07:41.430Z,75.25
2023-05-08T02:10:11.844Z,75.61
2023-05-08T02:12:43.409Z,75.63
2023-05-08T02:15:16.101Z,75.54
2023-05-08T02:17:48.905Z,75.66
2023-05-08T02:20:18.914Z,75.94
2023-05-08T02:22:51.505Z,76.08
2023-05-08T02:25:20.237Z,76.14
2023-05-08T02:27:50.954Z,76.08
2023-05-08T02:30:22.226Z,75.95
2023-05-08T02:32:53.522Z,76.03
2023-05-08T02:35:23.662Z,76.25
2023-05-08T02:37:55.634Z,76.24
2023-05-08T02:40:28.021Z,76.44
2023-05-08T02:42:57.538Z,76.50
2023-05-08T02:45:33.203Z,76.62
2023-05-08T02:48:15.697Z,76.60
2023-05-08T02:51:00.666Z,76.58
2023-05-08T02:53:37.946Z,76.63
2023-05-08T02:56:15.537Z,76.52
2023-05-08T02:58:49.655Z,76.50
2023-05-08T03:01:30.393Z,76.49
2023-05-08T03:04:08.077Z,76.56
2023-05-08T03:06:47.149Z,76.65
2023-05-08T03:09:21.142Z,76.74
2023-05-08T03:11:54.029Z,76.87
2023-05-08T03:14:27.337Z,76.95
2023-05-08T03:16:58.254Z,77.15
2023-05-08T03:19:36.785Z,77.06
2023-05-08T03:22:09.078Z,76.98
2023-05-08T03:24:40.291Z,77.04
2023-05-08T03:27:14.406Z,77.05
2023-05-08T03:29:45.889Z,77.33
2023-05-08T03:32:15.400Z,77.42
2023-05-08T03:34:44.971Z,77.59
2023-05-08T03:37:13.565Z,77.74
2023-05-08T03:39:42.359Z,77.75
2023-05-08T03:42:21.908Z,77.78
2023-05-08T03:44:54.873Z,77.71
2023-05-08T03:47:27.942Z,77.76
2023-05-08T03:49:57.641Z,77.91
2023-05-08T03:52:27.124Z,77.75
2023-05-08T03:54:56.078Z,77.78
2023-05-08T03:57:28.050Z,77.78
2023-05-08T04:00:20.797Z,77.75
2023-05-08T04:03:25.227Z,77.59
2023-05-08T04:06:08.186Z,77.49
2023-05-08T04:08:49.613Z,77.38
2023-05-08T04:11:31.949Z,77.24
2023-05-08T04:14:07.381Z,77.09
2023-05-08T04:16:44.991Z,77.06
2023-05-08T04:19:25.123Z,76.83
2023-05-08T04:21:59.141Z,76.72
2023-05-08T04:24:30.804Z,76.50
2023-05-08T04:27:01.906Z,76.32
2023-05-08T04:29:33.704Z,76.12
2023-05-08T04:32:05.656Z,75.95
2023-05-08T04:34:36.134Z,75.84
2023-05-08T04:37:07.568Z,75.63
2023-05-08T04:39:36.526Z,75.46
2023-05-08T04:42:05.933Z,75.35
2023-05-08T04:44:35.895Z,75.16
2023-05-08T04:47:04.642Z,74.95
2023-05-08T04:49:33.950Z,74.84
2023-05-08T04:52:02.436Z,74.66
2023-05-08T04:54:31.096Z,74.46
2023-05-08T04:56:59.979Z,74.31
2023-05-08T04:59:29.694Z,74.17
2023-05-08T05:01:59.382Z,73.94
2023-05-08T05:04:29.538Z,73.65
2023-05-08T05:06:58.210Z,73.47
2023-05-08T05:09:27.525Z,73.34
2023-05-08T05:11:58.161Z,73.23
2023-05-08T05:14:27.671Z,73.03
2023-05-08T05:16:56.754Z,72.69
2023-05-08T05:19:25.844Z,72.43
2023-05-08T05:21:54.623Z,72.06
2023-05-08T05:24:23.634Z,71.70
2023-05-08T05:26:54.352Z,71.45
2023-05-08T05:29:23.758Z,70.98
2023-05-08T05:31:52.923Z,70.77
2023-05-08T05:34:22.351Z,70.61
2023-05-08T05:36:50.953Z,70.48
2023-05-08T05:39:19.733Z,70.22
2023-05-08T05:41:48.420Z,70.07
2023-05-08T05:44:17.096Z,69.86
2023-05-08T05:46:45.841Z,69.63
2023-05-08T05:49:14.474Z,69.38
2023-05-08T05:51:43.167Z,69.20
2023-05-08T05:54:11.956Z,69.14
2023-05-08T05:56:41.041Z,69.06
2023-05-08T05:59:09.835Z,68.79
2023-05-08T06:01:39.677Z,68.32
2023-05-08T06:04:08.254Z,68.03
2023-05-08T06:06:36.919Z,67.78
2023-05-08T06:09:07.346Z,67.57
2023-05-08T06:11:35.766Z,67.41
2023-05-08T06:14:07.383Z,67.34
2023-05-08T06:16:36.513Z,67.26
2023-05-08T06:19:05.572Z,67.05
2023-05-08T06:21:34.775Z,66.98
2023-05-08T06:24:03.968Z,66.68
2023-05-08T06:26:32.830Z,66.24
2023-05-08T06:29:01.744Z,65.92
2023-05-08T06:31:30.606Z,65.75
2023-05-08T06:33:59.436Z,65.72
2023-05-08T06:36:27.905Z,65.50
2023-05-08T06:38:57.128Z,65.41
2023-05-08T06:41:26.822Z,65.35
2023-05-08T06:43:56.477Z,65.25
2023-05-08T06:46:25.918Z,64.86
2023-05-08T06:48:54.576Z,64.58
2023-05-08T06:51:23.407Z,64.43
2023-05-08T06:53:52.202Z,64.08
2023-05-08T06:56:23.198Z,63.40
2023-05-08T06:59:04.496Z,63.22
2023-05-08T07:01:37.631Z,62.78
2023-05-08T07:04:06.561Z,62.32
2023-05-08T07:06:35.308Z,62.22
2023-05-08T07:09:04.288Z,62.12
2023-05-08T07:11:32.985Z,61.78
2023-05-08T07:14:01.553Z,61.80
2023-05-08T07:16:30.170Z,61.59
2023-05-08T07:18:59.642Z,61.34
2023-05-08T07:21:29.694Z,61.07
2023-05-08T07:23:58.330Z,60.69
2023-05-08T07:26:27.018Z,60.17
2023-05-08T07:28:55.913Z,59.62
2023-05-08T07:31:32.451Z,59.55
2023-05-08T07:34:02.722Z,59.34
2023-05-08T07:36:32.635Z,58.47
2023-05-08T07:39:01.442Z,57.99
2023-05-08T07:41:30.207Z,57.24
2023-05-08T07:43:59.320Z,57.13
2023-05-08T07:46:28.143Z,57.03
2023-05-08T07:48:56.871Z,56.72
2023-05-08T07:51:25.679Z,56.56
2023-05-08T07:53:55.375Z,56.19
2023-05-08T07:56:23.842Z,56.18
2023-05-08T07:58:52.524Z,56.28
2023-05-08T08:01:21.424Z,56.24
2023-05-08T08:03:50.393Z,56.36
2023-05-08T08:06:19.112Z,56.19
2023-05-08T08:08:47.888Z,55.85
2023-05-08T08:11:16.915Z,55.56
2023-05-08T08:13:45.881Z,55.50
2023-05-08T08:16:14.699Z,55.22
2023-05-08T08:18:43.256Z,55.08
2023-05-08T08:21:12.477Z,54.88
2023-05-08T08:23:41.851Z,54.70
2023-05-08T08:26:10.345Z,54.15
2023-05-08T08:28:39.127Z,52.92
2023-05-08T08:31:07.740Z,52.42
2023-05-08T08:33:36.712Z,51.84
2023-05-08T08:36:05.809Z,51.57
2023-05-08T08:38:34.481Z,51.76
2023-05-08T08:41:04.265Z,51.67
2023-05-08T08:43:33.190Z,51.66
2023-05-08T08:46:11.010Z,51.36
2023-05-08T08:48:46.371Z,50.92
2023-05-08T08:51:24.862Z,50.44
2023-05-08T08:54:03.869Z,50.54
2023-05-08T08:56:33.685Z,50.93
2023-05-08T08:59:03.926Z,50.53
2023-05-08T09:01:36.501Z,50.06
2023-05-08T09:04:05.905Z,49.51
2023-05-08T09:06:38.670Z,49.16
2023-05-08T09:09:07.467Z,48.77
2023-05-08T09:11:37.655Z,48.41
2023-05-08T09:14:06.676Z,47.95
2023-05-08T09:16:35.813Z,47.62
2023-05-08T09:19:04.914Z,47.97
2023-05-08T09:21:34.474Z,48.03
2023-05-08T09:24:05.579Z,47.79
2023-05-08T09:26:39.757Z,47.88
2023-05-08T09:29:22.476Z,47.69
2023-05-08T09:31:53.035Z,47.93
2023-05-08T09:34:28.469Z,48.46
2023-05-08T09:37:12.811Z,48.34
2023-05-08T09:39:43.875Z,47.56
2023-05-08T09:42:15.959Z,47.20
2023-05-08T09:44:46.773Z,47.27
2023-05-08T09:47:23.702Z,46.95
2023-05-08T09:50:07.637Z,46.93
2023-05-08T09:52:38.778Z,47.44
2023-05-08T09:55:11.301Z,47.02
2023-05-08T09:57:52.348Z,47.15
2023-05-08T10:00:21.448Z,47.29
2023-05-08T10:03:00.754Z,47.46
2023-05-08T10:05:32.254Z,47.26
2023-05-08T10:08:19.961Z,47.44
2023-05-08T10:10:48.757Z,47.09
2023-05-08T10:13:17.556Z,46.74
2023-05-08T10:15:53.273Z,46.57
2023-05-08T10:18:29.245Z,46.52
2023-05-08T10:21:06.919Z,46.55
2023-05-08T10:23:38.299Z,46.58
2023-05-08T10:26:16.493Z,46.88
2023-05-08T10:28:50.605Z,46.83
2023-05-08T10:31:22.436Z,46.68
2023-05-08T10:33:55.261Z,46.48
2023-05-08T10:36:25.062Z,46.33
2023-05-08T10:38:54.996Z,46.37
2023-05-08T10:41:24.087Z,46.61
2023-05-08T10:43:53.589Z,46.50
2023-05-08T10:46:33.040Z,46.51
2023-05-08T10:49:16.135Z,46.91
2023-05-08T10:51:53.436Z,46.94
2023-05-08T10:54:40.036Z,46.98
2023-05-08T10:57:12.810Z,46.88
2023-05-08T10:59:47.718Z,46.41
2023-05-08T11:02:17.211Z,46.39
2023-05-08T11:04:46.033Z,46.49
2023-05-08T11:07:17.806Z,46.60
2023-05-08T11:09:48.022Z,46.87
2023-05-08T11:12:31.898Z,46.96
2023-05-08T11:15:10.087Z,47.10
2023-05-08T11:17:40.461Z,46.88
2023-05-08T11:20:09.389Z,46.71
2023-05-08T11:22:39.004Z,46.38
2023-05-08T11:25:10.367Z,46.31
2023-05-08T11:27:42.724Z,46.30
2023-05-08T11:30:32.614Z,46.35
2023-05-08T11:33:04.696Z,46.45
2023-05-08T11:35:51.994Z,46.49
2023-05-08T11:38:31.645Z,46.50
2023-05-08T11:41:07.750Z,46.76
2023-05-08T11:43:39.236Z,46.76
2023-05-08T11:46:14.902Z,46.95
2023-05-08T11:48:44.192Z,46.35
2023-05-08T11:51:13.914Z,46.27
2023-05-08T11:53:44.117Z,46.08
2023-05-08T11:56:13.020Z,46.31
2023-05-08T11:58:41.907Z,46.23
2023-05-08T12:01:10.725Z,45.94
2023-05-08T12:03:39.583Z,46.26
2023-05-08T12:06:08.461Z,46.20
2023-05-08T12:08:39.832Z,45.71
2023-05-08T12:11:09.442Z,45.63
2023-05-08T12:13:38.225Z,45.90
2023-05-08T12:16:08.157Z,45.78
2023-05-08T12:18:39.827Z,45.49
2023-05-08T12:21:08.889Z,45.24
2023-05-08T12:23:38.585Z,45.52
2023-05-08T12:26:09.166Z,45.47
2023-05-08T12:28:37.925Z,45.35
2023-05-08T12:31:07.186Z,45.15
2023-05-08T12:33:36.008Z,45.25
2023-05-08T12:36:06.620Z,45.49
2023-05-08T12:38:35.128Z,45.32
2023-05-08T12:41:04.941Z,45.26
2023-05-08T12:43:37.664Z,45.24
2023-05-08T12:46:06.543Z,45.07
2023-05-08T12:48:35.182Z,44.66
2023-05-08T12:51:04.974Z,44.52
2023-05-08T12:53:34.015Z,44.50
2023-05-08T12:56:04.826Z,44.28
2023-05-08T12:58:35.078Z,44.18
2023-05-08T13:01:15.825Z,43.74
2023-05-08T13:03:47.168Z,43.83
2023-05-08T13:06:21.512Z,44.27
2023-05-08T13:08:57.334Z,44.34
2023-05-08T13:11:31.645Z,44.27
2023-05-08T13:14:01.029Z,44.19
2023-05-08T13:16:30.522Z,44.29
2023-05-08T13:18:59.694Z,43.82
2023-05-08T13:21:30.455Z,43.42
2023-05-08T13:24:00.253Z,43.00
2023-05-08T13:26:30.116Z,43.09
2023-05-08T13:28:59.655Z,43.04
2023-05-08T13:31:28.524Z,42.63
2023-05-08T13:33:57.211Z,42.88
2023-05-08T13:36:28.797Z,42.65
2023-05-08T13:38:57.953Z,42.66
2023-05-08T13:41:27.270Z,42.48
2023-05-08T13:43:56.342Z,42.57
2023-05-08T13:46:25.689Z,42.53
2023-05-08T13:48:55.377Z,42.68
2023-05-08T13:51:25.310Z,42.15
2023-05-08T13:53:54.169Z,41.76
2023-05-08T13:56:26.658Z,41.85
2023-05-08T13:58:57.787Z,41.84
2023-05-08T14:01:28.413Z,41.76
2023-05-08T14:03:57.636Z,41.75
2023-05-08T14:06:28.517Z,41.61
2023-05-08T14:09:01.131Z,41.60
2023-05-08T14:11:32.693Z,41.68
2023-05-08T14:14:04.551Z,41.70
2023-05-08T14:16:37.476Z,41.64
2023-05-08T14:19:09.190Z,41.48
2023-05-08T14:21:42.169Z,41.74
2023-05-08T14:24:12.406Z,41.57
2023-05-08T14:26:45.260Z,41.63
2023-05-08T14:29:19.852Z,41.79
2023-05-08T14:31:49.859Z,41.58
2023-05-08T14:34:22.216Z,41.32
2023-05-08T14:36:52.949Z,41.31
2023-05-08T14:39:22.060Z,41.44
2023-05-08T14:42:14.210Z,40.99
2023-05-08T14:44:42.954Z,41.23
2023-05-08T14:47:12.546Z,41.17
2023-05-08T14:49:42.467Z,41.13
2023-05-08T14:52:11.372Z,41.05
2023-05-08T14:54:40.537Z,41.05
2023-05-08T14:57:09.903Z,41.03
2023-05-08T15:02:30.486Z,41.20
2023-05-08T15:05:01.209Z,41.05
2023-05-08T15:07:31.649Z,41.10
2023-05-08T15:10:02.491Z,41.00
2023-05-08T15:12:33.232Z,40.83
2023-05-08T15:15:04.360Z,41.02
2023-05-08T15:17:37.111Z,40.84
2023-05-08T15:20:08.324Z,40.86
2023-05-08T15:22:37.853Z,41.15
2023-05-08T15:25:09.838Z,41.08
2023-05-08T15:27:43.453Z,41.04
2023-05-08T15:30:16.278Z,41.12
2023-05-08T15:32:46.286Z,41.21
2023-05-08T15:35:18.230Z,41.09
2023-05-08T15:37:49.395Z,40.99
2023-05-08T15:40:20.719Z,40.84
2023-05-08T15:42:50.820Z,40.60
2023-05-08T15:45:20.307Z,40.81
2023-05-08T15:47:50.168Z,40.80
2023-05-08T15:50:20.131Z,40.49
2023-05-08T15:52:52.146Z,40.76
2023-05-08T15:55:28.368Z,40.94
2023-05-08T15:57:58.812Z,40.96
2023-05-08T16:00:43.301Z,40.96
2023-05-08T16:03:14.365Z,40.93
2023-05-08T16:05:45.545Z,41.02
2023-05-08T16:08:16.367Z,40.86
2023-05-08T16:10:45.285Z,40.58
2023-05-08T16:13:15.424Z,40.88
2023-05-08T16:15:46.984Z,40.81
2023-05-08T16:18:17.266Z,40.85
2023-05-08T16:20:46.553Z,40.99
2023-05-08T16:23:15.402Z,41.39
2023-05-08T16:25:45.276Z,41.35
2023-05-08T16:28:14.559Z,41.17
2023-05-08T16:30:43.724Z,41.25
2023-05-08T16:33:13.146Z,41.36
2023-05-08T16:35:43.009Z,41.47
2023-05-08T16:38:11.849Z,41.43
2023-05-08T16:40:42.172Z,41.51
2023-05-08T16:43:12.094Z,41.43
2023-05-08T16:45:43.310Z,41.19
2023-05-08T16:48:12.450Z,41.05
2023-05-08T16:50:41.945Z,41.12
2023-05-08T16:53:11.176Z,41.02
2023-05-08T16:55:40.127Z,41.11
2023-05-08T16:58:09.325Z,41.34
2023-05-08T17:00:37.814Z,41.28
2023-05-08T17:03:06.428Z,41.11
2023-05-08T17:05:35.885Z,41.16
2023-05-08T17:08:05.088Z,41.33
2023-05-08T17:10:34.001Z,41.45
2023-05-08T17:13:02.995Z,41.44
2023-05-08T17:15:32.698Z,41.50
2023-05-08T17:18:01.948Z,41.57
2023-05-08T17:20:31.509Z,41.63
2023-05-08T17:23:03.175Z,41.75
2023-05-08T17:25:33.879Z,41.87
2023-05-08T17:28:03.290Z,41.84
2023-05-08T17:30:32.271Z,41.87
2023-05-08T17:33:01.444Z,41.86
2023-05-08T17:35:31.085Z,41.84
2023-05-08T17:38:01.604Z,41.95
2023-05-08T17:40:32.143Z,42.12
2023-05-08T17:43:02.108Z,42.22
2023-05-08T17:45:33.170Z,42.32
2023-05-08T17:48:02.858Z,42.41
2023-05-08T17:50:34.498Z,42.54
2023-05-08T17:53:06.434Z,42.63
2023-05-08T17:55:41.627Z,42.52
2023-05-08T17:58:15.251Z,41.82
2023-05-08T18:00:58.390Z,40.84
2023-05-08T18:03:29.082Z,40.15
2023-05-08T18:06:01.231Z,39.91
2023-05-08T18:08:34.707Z,39.92
2023-05-08T18:11:06.022Z,40.18
2023-05-08T18:13:38.032Z,40.66
2023-05-08T18:16:08.572Z,40.95
2023-05-08T18:18:37.635Z,41.50
2023-05-08T18:21:06.727Z,41.94
2023-05-08T18:23:36.036Z,42.37
2023-05-08T18:26:05.388Z,42.68
2023-05-08T18:28:36.423Z,43.05
2023-05-08T18:31:05.245Z,43.57
2023-05-08T18:33:34.872Z,43.87
2023-05-08T18:36:07.502Z,44.32
2023-05-08T18:38:36.823Z,44.65
2023-05-08T18:41:06.379Z,45.10
2023-05-08T18:43:37.452Z,45.67
2023-05-08T18:46:17.923Z,45.88
2023-05-08T18:48:47.157Z,46.24
2023-05-08T18:51:16.185Z,46.52
2023-05-08T18:53:45.458Z,46.69
2023-05-08T18:56:14.337Z,46.96
2023-05-08T18:58:43.214Z,47.30
2023-05-08T19:01:12.732Z,47.59
2023-05-08T19:03:42.565Z,47.86
2023-05-08T19:06:12.808Z,48.06
2023-05-08T19:08:42.190Z,48.22
2023-05-08T19:11:11.263Z,48.63
2023-05-08T19:13:40.355Z,48.87
2023-05-08T19:16:09.094Z,49.04
2023-05-08T19:18:38.772Z,49.12
2023-05-08T19:21:08.699Z,49.38
2023-05-08T19:23:38.305Z,49.60
2023-05-08T19:26:07.572Z,49.79
2023-05-08T19:28:36.592Z,50.05
2023-05-08T19:31:05.782Z,50.16
2023-05-08T19:33:35.382Z,50.23
2023-05-08T19:36:05.615Z,50.56
2023-05-08T19:38:34.401Z,50.64
2023-05-08T19:41:03.485Z,50.93
2023-05-08T19:43:32.938Z,51.14
2023-05-08T19:46:02.108Z,51.29
2023-05-08T19:48:33.678Z,51.44
2023-05-08T19:51:10.450Z,51.55
2023-05-08T19:53:40.434Z,51.62
2023-05-08T19:56:09.581Z,51.98
2023-05-08T19:58:39.136Z,52.13
2023-05-08T20:01:08.380Z,52.26
2023-05-08T20:03:38.913Z,52.39
2023-05-08T20:06:08.722Z,52.50
2023-05-08T20:08:38.843Z,52.62
2023-05-08T20:11:12.001Z,52.72
2023-05-08T20:13:41.124Z,52.88
2023-05-08T20:16:10.776Z,52.92
2023-05-08T20:18:40.628Z,53.09
2023-05-08T20:21:21.364Z,53.15
2023-05-08T20:23:50.282Z,53.22
2023-05-08T20:26:19.261Z,53.34
2023-05-08T20:28:48.254Z,53.46
2023-05-08T20:31:17.786Z,53.48
2023-05-08T20:33:46.654Z,53.71
2023-05-08T20:36:15.640Z,53.74
2023-05-08T20:38:44.482Z,54.07
2023-05-08T20:41:13.626Z,54.20
2023-05-08T20:43:42.907Z,54.35
2023-05-08T20:46:12.066Z,54.39
2023-05-08T20:48:41.219Z,54.63
2023-05-08T20:51:10.618Z,54.69
2023-05-08T20:53:39.301Z,54.96
2023-05-08T20:56:09.361Z,55.02
2023-05-08T20:58:38.313Z,55.15
2023-05-08T21:01:07.229Z,55.30
2023-05-08T21:03:36.103Z,55.52
2023-05-08T21:06:05.138Z,55.53
2023-05-08T21:08:33.910Z,55.71
2023-05-08T21:11:02.880Z,55.96
2023-05-08T21:13:32.386Z,56.11
2023-05-08T21:16:01.110Z,56.32
2023-05-08T21:18:29.967Z,56.47
2023-05-08T21:20:58.751Z,56.68
2023-05-08T21:23:27.438Z,56.86
2023-05-08T21:25:56.631Z,57.03
2023-05-08T21:28:25.370Z,57.22
2023-05-08T21:30:53.787Z,57.25
2023-05-08T21:33:22.276Z,57.62
2023-05-08T21:35:50.958Z,57.80
2023-05-08T21:38:19.574Z,58.00
2023-05-08T21:40:48.130Z,58.10
2023-05-08T21:43:16.486Z,58.29
2023-05-08T21:45:45.102Z,58.56
2023-05-08T21:48:13.793Z,58.47
2023-05-08T21:50:42.372Z,58.60
2023-05-08T21:53:11.151Z,58.64
2023-05-08T21:55:39.528Z,58.64
2023-05-08T21:58:08.025Z,58.85
2023-05-08T22:00:36.800Z,58.78
2023-05-08T22:03:05.764Z,58.91
2023-05-08T22:05:34.476Z,59.10
2023-05-08T22:08:02.793Z,59.20
2023-05-08T22:10:31.457Z,59.44
2023-05-08T22:13:01.678Z,59.74
2023-05-08T22:15:31.048Z,59.92
2023-05-08T22:18:00.811Z,60.07
2023-05-08T22:20:29.464Z,60.02
2023-05-08T22:22:58.456Z,60.10
2023-05-08T22:25:27.352Z,60.32
2023-05-08T22:27:55.841Z,60.64
2023-05-08T22:30:25.643Z,60.96
2023-05-08T22:32:57.947Z,61.25
2023-05-08T22:35:27.864Z,61.01
2023-05-08T22:37:59.598Z,61.17
2023-05-08T22:40:29.084Z,61.46
2023-05-08T22:43:01.356Z,61.68
2023-05-08T22:45:29.847Z,61.94
2023-05-08T22:47:58.548Z,62.38
2023-05-08T22:50:27.120Z,62.55
2023-05-08T22:52:55.702Z,62.62
2023-05-08T22:55:24.817Z,62.89
2023-05-08T22:57:53.402Z,62.98
2023-05-08T23:00:21.850Z,63.06
2023-05-08T23:02:50.689Z,63.40
2023-05-08T23:05:19.118Z,63.46
2023-05-08T23:07:47.565Z,63.70
2023-05-08T23:10:16.298Z,63.90
2023-05-08T23:12:44.920Z,63.87
2023-05-08T23:15:13.979Z,64.02
2023-05-08T23:17:42.909Z,63.89
2023-05-08T23:20:11.667Z,63.81
2023-05-08T23:22:40.285Z,64.15
2023-05-08T23:25:12.477Z,64.33
2023-05-08T23:27:41.491Z,64.26
2023-05-08T23:30:13.423Z,64.40
2023-05-08T23:32:42.091Z,64.67
2023-05-08T23:35:11.839Z,64.58
2023-05-08T23:37:40.441Z,64.49
2023-05-08T23:40:09.948Z,64.58
2023-05-08T23:42:40.051Z,64.56
2023-05-08T23:45:09.394Z,64.61
2023-05-08T23:47:37.982Z,64.79
2023-05-08T23:50:07.232Z,64.76
2023-05-08T23:52:35.729Z,64.82
2023-05-08T23:55:04.523Z,64.87
2023-05-08T23:57:33.222Z,65.11
